Time,TemperatureF,DewpointF,PressureIn,WindDirection,WindDirectionDegrees,WindSpeedMPH,WindSpeedGustMPH,Humidity,HourlyPrecipIn,Conditions,Clouds,dailyrainin,SoftwareType,DateUTC
2013-02-09 00:02:00,47.3,24.8,29.83,ESE,113,1.1,1.1,41,0.00,,,0.00,WUHU216HW,2013-02-09 07:02:00,
2013-02-09 00:07:00,47.3,24.8,29.83,ESE,113,1.1,1.1,41,0.00,,,0.00,WUHU216HW,2013-02-09 07:07:00,
2013-02-09 00:28:00,46.8,24.9,29.82,East,90,2.0,2.0,42,0.00,,,0.00,WUHU216HW,2013-02-09 07:28:00,
2013-02-09 00:33:00,46.8,24.9,29.82,ESE,113,1.8,2.0,42,0.00,,,0.00,WUHU216HW,2013-02-09 07:33:00,
2013-02-09 00:38:00,46.8,24.9,29.82,ESE,113,1.8,1.8,42,0.00,,,0.00,WUHU216HW,2013-02-09 07:38:00,
2013-02-09 00:57:00,46.8,25.4,29.82,ESE,113,1.1,1.1,43,0.00,,,0.00,WUHU216HW,2013-02-09 07:57:00,
2013-02-09 01:03:00,46.8,25.4,29.82,ESE,113,1.1,1.1,43,0.00,,,0.00,WUHU216HW,2013-02-09 08:03:00,
2013-02-09 01:08:00,46.8,25.4,29.82,ESE,113,1.1,1.1,43,0.00,,,0.00,WUHU216HW,2013-02-09 08:08:00,
2013-02-09 01:28:00,47.2,25.7,29.84,WSW,248,1.1,1.1,43,0.00,,,0.00,WUHU216HW,2013-02-09 08:28:00,
2013-02-09 01:33:00,47.2,25.7,29.84,SSW,203,2.5,2.5,43,0.00,,,0.00,WUHU216HW,2013-02-09 08:33:00,
2013-02-09 01:38:00,47.2,25.7,29.84,SSW,203,2.5,2.5,43,0.00,,,0.00,WUHU216HW,2013-02-09 08:38:00,
2013-02-09 01:57:00,47.5,26.0,29.83,WSW,248,3.4,3.4,43,0.00,,,0.00,WUHU216HW,2013-02-09 08:57:00,
2013-02-09 02:02:00,47.5,26.0,29.83,WSW,248,3.4,3.4,43,0.00,,,0.00,WUHU216HW,2013-02-09 09:02:00,
2013-02-09 02:07:00,47.5,26.0,29.83,WSW,248,3.4,3.4,43,0.00,,,0.00,WUHU216HW,2013-02-09 09:07:00,
2013-02-09 02:28:00,47.0,26.0,29.82,NNW,338,1.1,1.1,44,0.00,,,0.00,WUHU216HW,2013-02-09 09:28:00,
2013-02-09 02:33:00,47.0,26.0,29.82,NNW,338,1.1,1.1,44,0.00,,,0.00,WUHU216HW,2013-02-09 09:33:00,
2013-02-09 02:38:00,47.0,26.0,29.82,NNW,338,1.1,1.1,44,0.00,,,0.00,WUHU216HW,2013-02-09 09:38:00,
2013-02-09 02:57:00,47.2,26.7,29.80,East,90,3.4,3.4,45,0.00,,,0.00,WUHU216HW,2013-02-09 09:57:00,
2013-02-09 03:02:00,47.2,26.7,29.80,East,90,2.5,3.4,45,0.00,,,0.00,WUHU216HW,2013-02-09 10:02:00,
2013-02-09 03:07:00,47.2,26.7,29.80,East,90,2.5,3.4,45,0.00,,,0.00,WUHU216HW,2013-02-09 10:07:00,
2013-02-09 03:28:00,47.2,27.3,29.79,SE,135,4.0,4.0,46,0.00,,,0.00,WUHU216HW,2013-02-09 10:28:00,
2013-02-09 03:33:00,47.2,27.3,29.79,ESE,113,3.6,4.0,46,0.00,,,0.00,WUHU216HW,2013-02-09 10:33:00,
2013-02-09 03:38:00,47.2,27.3,29.79,ESE,113,3.6,4.0,46,0.00,,,0.00,WUHU216HW,2013-02-09 10:38:00,
2013-02-09 03:57:00,47.2,28.4,29.79,WSW,248,6.7,6.7,48,0.00,,,0.00,WUHU216HW,2013-02-09 10:57:00,
2013-02-09 04:02:00,47.2,28.9,29.79,WSW,248,6.5,6.7,49,0.00,,,0.00,WUHU216HW,2013-02-09 11:02:00,
2013-02-09 04:07:00,47.2,28.9,29.79,WSW,248,6.5,6.5,49,0.00,,,0.00,WUHU216HW,2013-02-09 11:07:00,
2013-02-09 04:28:00,43.7,31.6,29.81,WSW,248,0.9,0.9,62,0.00,,,0.00,WUHU216HW,2013-02-09 11:28:00,
2013-02-09 04:33:00,43.7,32.0,29.81,North,0,0.2,0.9,63,0.00,,,0.00,WUHU216HW,2013-02-09 11:33:00,
2013-02-09 04:38:00,43.7,32.0,29.81,North,0,0.2,0.9,63,0.00,,,0.00,WUHU216HW,2013-02-09 11:38:00,
2013-02-09 04:57:00,42.8,33.0,29.82,ESE,113,2.9,2.9,68,0.00,,,0.00,WUHU216HW,2013-02-09 11:57:00,
2013-02-09 05:02:00,42.8,33.0,29.82,WSW,248,0.4,2.9,68,0.00,,,0.00,WUHU216HW,2013-02-09 12:02:00,
2013-02-09 05:07:00,42.8,33.0,29.82,WSW,248,0.4,2.9,68,0.00,,,0.00,WUHU216HW,2013-02-09 12:07:00,
2013-02-09 05:28:00,38.9,32.3,29.83,NNW,338,8.1,8.1,77,0.00,,,0.00,WUHU216HW,2013-02-09 12:28:00,
2013-02-09 05:33:00,38.9,32.3,29.83,NW,315,9.8,9.8,77,0.00,,,0.00,WUHU216HW,2013-02-09 12:33:00,
2013-02-09 05:38:00,38.9,32.3,29.83,NW,315,9.8,9.8,77,0.00,,,0.00,WUHU216HW,2013-02-09 12:38:00,
2013-02-09 05:57:00,37.1,31.8,29.83,NNW,338,6.0,6.0,81,0.05,,,0.00,WUHU216HW,2013-02-09 12:57:00,
2013-02-09 06:02:00,37.1,31.8,29.83,NW,315,6.5,6.5,81,0.05,,,0.05,WUHU216HW,2013-02-09 13:02:00,
2013-02-09 06:07:00,37.1,31.8,29.83,NW,315,6.5,6.5,81,0.05,,,0.05,WUHU216HW,2013-02-09 13:07:00,
2013-02-09 06:28:00,35.6,31.0,29.84,North,0,4.7,4.7,83,0.11,,,0.05,WUHU216HW,2013-02-09 13:28:00,
2013-02-09 06:33:00,35.6,31.0,29.84,NW,315,2.7,4.7,83,0.11,,,0.11,WUHU216HW,2013-02-09 13:33:00,
2013-02-09 06:38:00,35.6,31.0,29.84,NW,315,2.7,2.7,83,0.11,,,0.11,WUHU216HW,2013-02-09 13:38:00,
2013-02-09 06:57:00,36.5,32.1,29.84,NW,315,6.3,6.3,84,0.07,,,0.11,WUHU216HW,2013-02-09 13:57:00,
2013-02-09 07:02:00,36.5,31.9,29.84,NNW,338,6.0,7.6,83,0.06,,,0.12,WUHU216HW,2013-02-09 14:02:00,
2013-02-09 07:07:00,36.5,31.9,29.84,NNW,338,6.0,7.6,83,0.06,,,0.12,WUHU216HW,2013-02-09 14:07:00,
2013-02-09 07:12:00,36.9,31.9,29.85,NW,315,4.9,6.7,82,0.03,,,0.12,WUHU216HW,2013-02-09 14:12:00,
2013-02-09 07:17:00,36.9,31.9,29.86,NW,315,5.8,9.8,82,0.03,,,0.12,WUHU216HW,2013-02-09 14:17:00,
2013-02-09 07:22:00,37.1,31.8,29.86,NW,315,7.8,10.5,81,0.02,,,0.12,WUHU216HW,2013-02-09 14:22:00,
2013-02-09 07:27:00,37.1,32.0,29.87,West,270,9.2,10.5,82,0.01,,,0.12,WUHU216HW,2013-02-09 14:27:00,
2013-02-09 07:32:00,37.1,32.0,29.87,West,270,10.1,10.1,82,0.01,,,0.12,WUHU216HW,2013-02-09 14:32:00,
2013-02-09 07:37:00,36.9,31.9,29.87,NW,315,8.7,10.1,82,0.00,,,0.12,WUHU216HW,2013-02-09 14:37:00,
2013-02-09 07:42:00,37.1,32.4,29.87,West,270,6.9,10.1,83,0.00,,,0.12,WUHU216HW,2013-02-09 14:42:00,
2013-02-09 07:47:00,37.1,32.4,29.87,West,270,7.4,11.2,83,0.00,,,0.12,WUHU216HW,2013-02-09 14:47:00,
2013-02-09 07:52:00,37.1,32.4,29.87,West,270,5.4,11.2,83,0.00,,,0.12,WUHU216HW,2013-02-09 14:52:00,
2013-02-09 07:57:00,37.1,32.0,29.87,North,0,6.3,9.2,82,0.00,,,0.12,WUHU216HW,2013-02-09 14:57:00,
2013-02-09 08:02:00,37.1,31.8,29.86,North,0,7.4,9.2,81,0.00,,,0.12,WUHU216HW,2013-02-09 15:02:00,
2013-02-09 08:07:00,37.1,31.1,29.86,NNW,338,5.4,10.3,79,0.00,,,0.12,WUHU216HW,2013-02-09 15:07:00,
2013-02-09 08:12:00,37.4,31.2,29.85,West,270,6.3,10.3,78,0.00,,,0.12,WUHU216HW,2013-02-09 15:12:00,
2013-02-09 08:17:00,37.8,30.9,29.85,WNW,293,4.0,8.1,76,0.00,,,0.12,WUHU216HW,2013-02-09 15:17:00,
2013-02-09 08:22:00,37.8,31.2,29.86,North,0,3.8,8.9,77,0.00,,,0.12,WUHU216HW,2013-02-09 15:22:00,
2013-02-09 08:27:00,38.0,31.4,29.86,WNW,293,3.6,12.1,77,0.00,,,0.12,WUHU216HW,2013-02-09 15:27:00,
2013-02-09 08:32:00,38.2,31.2,29.87,West,270,5.8,12.1,76,0.00,,,0.12,WUHU216HW,2013-02-09 15:32:00,
2013-02-09 08:37:00,38.2,31.2,29.88,WNW,293,4.9,6.7,76,0.00,,,0.12,WUHU216HW,2013-02-09 15:37:00,
2013-02-09 08:42:00,38.0,31.1,29.88,WNW,293,2.5,5.8,76,0.00,,,0.12,WUHU216HW,2013-02-09 15:42:00,
2013-02-09 08:47:00,38.2,31.6,29.89,SW,225,2.2,5.8,77,0.00,,,0.12,WUHU216HW,2013-02-09 15:47:00,
2013-02-09 08:52:00,38.3,32.1,29.89,SSW,203,2.5,3.4,78,0.00,,,0.12,WUHU216HW,2013-02-09 15:52:00,
2013-02-09 08:57:00,38.5,32.6,29.90,SE,135,0.7,3.4,79,0.00,,,0.12,WUHU216HW,2013-02-09 15:57:00,
2013-02-09 09:02:00,38.7,32.8,29.90,NNW,338,0.9,2.5,79,0.00,,,0.12,WUHU216HW,2013-02-09 16:02:00,
2013-02-09 09:07:00,38.7,32.8,29.90,NNW,338,1.6,1.6,79,0.00,,,0.12,WUHU216HW,2013-02-09 16:07:00,
2013-02-09 09:12:00,38.5,32.3,29.90,North,0,0.0,1.6,78,0.00,,,0.12,WUHU216HW,2013-02-09 16:12:00,
2013-02-09 09:17:00,38.7,32.5,29.91,ENE,68,0.0,1.6,78,0.00,,,0.12,WUHU216HW,2013-02-09 16:17:00,
2013-02-09 09:22:00,38.7,32.8,29.91,ENE,68,0.0,0.4,79,0.00,,,0.12,WUHU216HW,2013-02-09 16:22:00,
2013-02-09 09:27:00,39.1,32.8,29.92,WNW,293,0.4,1.1,78,0.00,,,0.12,WUHU216HW,2013-02-09 16:27:00,
2013-02-09 09:32:00,39.2,32.9,29.92,ESE,113,0.9,1.6,78,0.00,,,0.12,WUHU216HW,2013-02-09 16:32:00,
2013-02-09 09:37:00,39.6,33.7,29.93,ESE,113,0.0,1.6,79,0.00,,,0.12,WUHU216HW,2013-02-09 16:37:00,
2013-02-09 09:42:00,40.0,33.9,29.93,ESE,113,0.7,1.6,79,0.00,,,0.12,WUHU216HW,2013-02-09 16:42:00,
2013-02-09 09:47:00,40.1,34.5,29.93,East,90,1.3,2.2,80,0.00,,,0.12,WUHU216HW,2013-02-09 16:47:00,
2013-02-09 09:52:00,40.3,34.3,29.93,ESE,113,1.8,2.2,79,0.00,,,0.12,WUHU216HW,2013-02-09 16:52:00,
2013-02-09 09:57:00,40.5,34.5,29.93,ESE,113,1.8,4.5,79,0.00,,,0.12,WUHU216HW,2013-02-09 16:57:00,
2013-02-09 10:02:00,40.7,34.7,29.93,ESE,113,3.8,4.5,79,0.00,,,0.12,WUHU216HW,2013-02-09 17:02:00,
2013-02-09 10:07:00,41.2,35.1,29.93,ESE,113,0.9,3.8,79,0.00,,,0.12,WUHU216HW,2013-02-09 17:07:00,
2013-02-09 10:12:00,41.8,35.6,29.93,ENE,68,4.3,4.3,79,0.00,,,0.12,WUHU216HW,2013-02-09 17:12:00,
2013-02-09 10:17:00,42.7,36.5,29.93,East,90,3.1,4.3,79,0.00,,,0.12,WUHU216HW,2013-02-09 17:17:00,
2013-02-09 10:22:00,43.0,36.0,29.94,ENE,68,2.9,4.3,76,0.00,,,0.12,WUHU216HW,2013-02-09 17:22:00,
2013-02-09 10:27:00,43.4,36.3,29.94,NE,45,1.3,4.0,76,0.00,,,0.12,WUHU216HW,2013-02-09 17:27:00,
2013-02-09 10:32:00,43.6,36.2,29.94,South,180,1.3,4.0,75,0.00,,,0.12,WUHU216HW,2013-02-09 17:32:00,
2013-02-09 10:37:00,43.6,36.2,29.94,SSW,203,0.7,3.1,75,0.00,,,0.12,WUHU216HW,2013-02-09 17:37:00,
2013-02-09 10:42:00,43.6,35.8,29.94,ESE,113,0.4,2.7,74,0.00,,,0.12,WUHU216HW,2013-02-09 17:42:00,
2013-02-09 10:47:00,43.6,35.2,29.94,NE,45,1.1,3.4,72,0.00,,,0.12,WUHU216HW,2013-02-09 17:47:00,
2013-02-09 10:52:00,43.4,35.0,29.94,ESE,113,0.2,3.4,72,0.00,,,0.12,WUHU216HW,2013-02-09 17:52:00,
2013-02-09 10:57:00,43.9,36.2,29.94,SW,225,1.1,2.5,74,0.00,,,0.12,WUHU216HW,2013-02-09 17:57:00,
2013-02-09 11:02:00,44.8,37.0,29.94,NNE,23,1.1,4.0,74,0.00,,,0.12,WUHU216HW,2013-02-09 18:02:00,
2013-02-09 11:07:00,44.8,36.4,29.94,ENE,68,3.1,4.0,72,0.00,,,0.12,WUHU216HW,2013-02-09 18:07:00,
2013-02-09 11:12:00,45.0,35.8,29.94,East,90,1.1,3.8,70,0.00,,,0.12,WUHU216HW,2013-02-09 18:12:00,
2013-02-09 11:17:00,44.3,34.7,29.94,SW,225,0.0,4.3,69,0.00,,,0.12,WUHU216HW,2013-02-09 18:17:00,
2013-02-09 11:22:00,44.1,34.6,29.94,WSW,248,1.1,4.3,69,0.00,,,0.12,WUHU216HW,2013-02-09 18:22:00,
2013-02-09 11:27:00,43.7,33.8,29.94,NNW,338,1.8,2.9,68,0.00,,,0.12,WUHU216HW,2013-02-09 18:27:00,
2013-02-09 11:32:00,43.7,33.8,29.94,South,180,1.1,2.9,68,0.00,,,0.12,WUHU216HW,2013-02-09 18:32:00,
2013-02-09 11:37:00,44.1,34.6,29.94,East,90,0.4,2.5,69,0.00,,,0.12,WUHU216HW,2013-02-09 18:37:00,
2013-02-09 11:42:00,45.0,35.1,29.94,North,0,0.0,2.5,68,0.00,,,0.12,WUHU216HW,2013-02-09 18:42:00,
2013-02-09 11:47:00,45.4,35.4,29.94,WSW,248,0.4,4.5,68,0.00,,,0.12,WUHU216HW,2013-02-09 18:47:00,
2013-02-09 11:52:00,45.5,34.5,29.94,WSW,248,4.3,4.5,65,0.00,,,0.12,WUHU216HW,2013-02-09 18:52:00,
2013-02-09 11:57:00,45.7,33.0,29.94,West,270,6.0,8.5,61,0.00,,,0.12,WUHU216HW,2013-02-09 18:57:00,
2013-02-09 12:02:00,45.7,32.7,29.94,West,270,5.4,9.8,60,0.00,,,0.12,WUHU216HW,2013-02-09 19:02:00,
2013-02-09 12:07:00,45.9,33.6,29.94,WSW,248,4.7,9.8,62,0.00,,,0.12,WUHU216HW,2013-02-09 19:07:00,
2013-02-09 12:12:00,46.1,33.4,29.93,West,270,4.7,7.2,61,0.00,,,0.12,WUHU216HW,2013-02-09 19:12:00,
2013-02-09 12:17:00,46.4,33.3,29.94,WSW,248,4.3,6.3,60,0.00,,,0.12,WUHU216HW,2013-02-09 19:17:00,
2013-02-09 12:22:00,46.8,32.3,29.93,WSW,248,4.3,6.3,57,0.00,,,0.12,WUHU216HW,2013-02-09 19:22:00,
2013-02-09 12:27:00,46.8,31.4,29.93,WNW,293,4.7,10.5,55,0.00,,,0.12,WUHU216HW,2013-02-09 19:27:00,
2013-02-09 12:32:00,46.8,31.0,29.93,West,270,3.4,10.5,54,0.00,,,0.12,WUHU216HW,2013-02-09 19:32:00,
2013-02-09 12:37:00,47.2,31.3,29.93,WSW,248,5.4,9.4,54,0.00,,,0.12,WUHU216HW,2013-02-09 19:37:00,
2013-02-09 12:42:00,47.5,31.1,29.93,SW,225,2.9,9.4,53,0.00,,,0.12,WUHU216HW,2013-02-09 19:42:00,
2013-02-09 12:47:00,48.2,31.9,29.93,West,270,2.5,8.3,53,0.00,,,0.12,WUHU216HW,2013-02-09 19:47:00,
2013-02-09 12:52:00,48.2,32.3,29.93,West,270,6.7,9.8,54,0.00,,,0.12,WUHU216HW,2013-02-09 19:52:00,
2013-02-09 12:57:00,47.9,32.0,29.93,WSW,248,3.8,9.8,54,0.00,,,0.12,WUHU216HW,2013-02-09 19:57:00,
2013-02-09 13:02:00,47.9,31.5,29.93,WSW,248,6.3,9.8,53,0.00,,,0.12,WUHU216HW,2013-02-09 20:02:00,
2013-02-09 13:07:00,47.5,29.8,29.93,WNW,293,4.7,9.8,50,0.00,,,0.12,WUHU216HW,2013-02-09 20:07:00,
2013-02-09 13:12:00,47.5,30.7,29.93,WSW,248,4.9,8.5,52,0.00,,,0.12,WUHU216HW,2013-02-09 20:12:00,
2013-02-09 13:17:00,47.9,30.6,29.93,WNW,293,13.0,13.0,51,0.00,,,0.12,WUHU216HW,2013-02-09 20:17:00,
2013-02-09 13:22:00,48.2,30.4,29.93,NW,315,8.9,13.0,50,0.00,,,0.12,WUHU216HW,2013-02-09 20:22:00,
2013-02-09 13:27:00,47.9,30.6,29.93,West,270,7.4,13.0,51,0.00,,,0.12,WUHU216HW,2013-02-09 20:27:00,
2013-02-09 13:32:00,47.5,30.3,29.93,NW,315,7.6,11.6,51,0.00,,,0.12,WUHU216HW,2013-02-09 20:32:00,
2013-02-09 13:37:00,47.5,30.3,29.92,NW,315,6.3,8.9,51,0.00,,,0.12,WUHU216HW,2013-02-09 20:37:00,
2013-02-09 13:42:00,47.3,29.6,29.92,NW,315,8.3,8.7,50,0.00,,,0.12,WUHU216HW,2013-02-09 20:42:00,
2013-02-09 13:47:00,47.2,29.4,29.92,West,270,6.5,8.5,50,0.00,,,0.12,WUHU216HW,2013-02-09 20:47:00,
2013-02-09 13:52:00,47.5,30.3,29.92,WSW,248,4.3,8.3,51,0.00,,,0.12,WUHU216HW,2013-02-09 20:52:00,
2013-02-09 13:57:00,48.2,30.4,29.92,WNW,293,9.4,10.5,50,0.00,,,0.12,WUHU216HW,2013-02-09 20:57:00,
2013-02-09 14:02:00,49.0,30.1,29.93,WNW,293,6.9,10.5,48,0.00,,,0.12,WUHU216HW,2013-02-09 21:02:00,
2013-02-09 14:07:00,49.0,29.5,29.93,WSW,248,9.8,11.9,47,0.00,,,0.12,WUHU216HW,2013-02-09 21:07:00,
2013-02-09 14:12:00,49.0,29.0,29.92,WNW,293,8.5,13.9,46,0.00,,,0.12,WUHU216HW,2013-02-09 21:12:00,
2013-02-09 14:17:00,49.1,29.2,29.93,WNW,293,7.6,13.9,46,0.00,,,0.12,WUHU216HW,2013-02-09 21:17:00,
2013-02-09 14:22:00,49.1,29.2,29.92,WSW,248,8.3,12.1,46,0.00,,,0.12,WUHU216HW,2013-02-09 21:22:00,
2013-02-09 14:27:00,49.9,29.8,29.92,West,270,5.4,9.8,46,0.00,,,0.12,WUHU216HW,2013-02-09 21:27:00,
2013-02-09 14:32:00,50.9,32.0,29.92,SW,225,3.4,9.8,48,0.00,,,0.12,WUHU216HW,2013-02-09 21:32:00,
2013-02-09 14:37:00,51.7,29.8,29.92,SSW,203,11.2,11.6,43,0.00,,,0.12,WUHU216HW,2013-02-09 21:37:00,
2013-02-09 14:42:00,51.7,29.8,29.92,WSW,248,9.6,11.9,43,0.00,,,0.12,WUHU216HW,2013-02-09 21:42:00,
2013-02-09 14:47:00,52.4,30.4,29.92,WSW,248,7.2,11.9,43,0.00,,,0.12,WUHU216HW,2013-02-09 21:47:00,
2013-02-09 14:52:00,52.6,30.1,29.92,West,270,8.7,11.4,42,0.00,,,0.12,WUHU216HW,2013-02-09 21:52:00,
2013-02-09 14:57:00,52.9,29.3,29.92,WSW,248,7.4,12.8,40,0.00,,,0.12,WUHU216HW,2013-02-09 21:57:00,
2013-02-09 15:02:00,52.9,28.5,29.92,WSW,248,10.1,13.6,39,0.00,,,0.12,WUHU216HW,2013-02-09 22:02:00,
2013-02-09 15:07:00,52.7,27.7,29.92,West,270,11.9,13.6,38,0.00,,,0.12,WUHU216HW,2013-02-09 22:07:00,
2013-02-09 15:12:00,52.2,28.6,29.92,WSW,248,6.9,13.6,40,0.00,,,0.12,WUHU216HW,2013-02-09 22:12:00,
2013-02-09 15:17:00,51.1,26.3,29.92,West,270,11.2,14.3,38,0.00,,,0.12,WUHU216HW,2013-02-09 22:17:00,
2013-02-09 15:22:00,50.8,26.7,29.92,NW,315,8.3,14.3,39,0.00,,,0.12,WUHU216HW,2013-02-09 22:22:00,
2013-02-09 15:27:00,50.4,26.3,29.92,WSW,248,7.4,11.4,39,0.00,,,0.12,WUHU216HW,2013-02-09 22:27:00,
2013-02-09 15:32:00,50.6,27.7,29.92,West,270,8.7,11.4,41,0.00,,,0.12,WUHU216HW,2013-02-09 22:32:00,
2013-02-09 15:37:00,51.3,27.8,29.92,WNW,293,7.6,13.4,40,0.00,,,0.12,WUHU216HW,2013-02-09 22:37:00,
2013-02-09 15:42:00,51.3,26.4,29.92,North,0,5.6,13.4,38,0.00,,,0.12,WUHU216HW,2013-02-09 22:42:00,
2013-02-09 15:47:00,51.3,27.1,29.92,West,270,8.3,12.8,39,0.00,,,0.12,WUHU216HW,2013-02-09 22:47:00,
2013-02-09 15:52:00,51.5,26.6,29.93,NW,315,11.6,12.8,38,0.00,,,0.12,WUHU216HW,2013-02-09 22:52:00,
2013-02-09 15:57:00,51.1,26.9,29.93,West,270,6.0,11.6,39,0.00,,,0.12,WUHU216HW,2013-02-09 22:57:00,
2013-02-09 16:02:00,51.1,26.9,29.93,WNW,293,7.6,11.6,39,0.00,,,0.12,WUHU216HW,2013-02-09 23:02:00,
2013-02-09 16:07:00,50.8,26.7,29.93,NW,315,9.8,11.4,39,0.00,,,0.12,WUHU216HW,2013-02-09 23:07:00,
2013-02-09 16:12:00,50.2,26.1,29.93,WNW,293,6.3,11.4,39,0.00,,,0.12,WUHU216HW,2013-02-09 23:12:00,
2013-02-09 16:17:00,50.0,25.9,29.93,NNW,338,9.6,11.0,39,0.00,,,0.12,WUHU216HW,2013-02-09 23:17:00,
2013-02-09 16:22:00,49.7,25.7,29.93,NW,315,8.5,11.0,39,0.00,,,0.12,WUHU216HW,2013-02-09 23:22:00,
2013-02-09 16:27:00,49.5,25.5,29.93,NNW,338,5.8,11.4,39,0.00,,,0.12,WUHU216HW,2013-02-09 23:27:00,
2013-02-09 16:32:00,49.3,25.3,29.93,WSW,248,7.2,11.4,39,0.00,,,0.12,WUHU216HW,2013-02-09 23:32:00,
2013-02-09 16:37:00,49.3,25.3,29.93,NW,315,6.3,10.7,39,0.00,,,0.12,WUHU216HW,2013-02-09 23:37:00,
2013-02-09 16:42:00,49.1,25.1,29.93,NW,315,4.7,10.7,39,0.00,,,0.12,WUHU216HW,2013-02-09 23:42:00,
2013-02-09 16:47:00,49.7,25.7,29.94,WNW,293,8.3,10.7,39,0.00,,,0.12,WUHU216HW,2013-02-09 23:47:00,
2013-02-09 16:52:00,50.0,25.3,29.94,NW,315,9.6,9.8,38,0.00,,,0.12,WUHU216HW,2013-02-09 23:52:00,
2013-02-09 16:57:00,49.7,24.9,29.95,WNW,293,4.7,10.5,38,0.00,,,0.12,WUHU216HW,2013-02-09 23:57:00,
2013-02-09 17:02:00,49.3,24.7,29.95,NW,315,5.6,10.5,38,0.00,,,0.12,WUHU216HW,2013-02-10 00:02:00,
2013-02-09 17:07:00,49.0,24.3,29.95,West,270,5.6,10.5,38,0.00,,,0.12,WUHU216HW,2013-02-10 00:07:00,
2013-02-09 17:12:00,48.6,24.7,29.95,WNW,293,7.6,8.7,39,0.00,,,0.12,WUHU216HW,2013-02-10 00:12:00,
2013-02-09 17:17:00,48.2,24.4,29.95,NNW,338,8.1,8.5,39,0.00,,,0.12,WUHU216HW,2013-02-10 00:17:00,
2013-02-09 17:22:00,47.9,24.7,29.95,West,270,5.8,8.5,40,0.00,,,0.12,WUHU216HW,2013-02-10 00:22:00,
2013-02-09 17:27:00,47.9,24.7,29.96,West,270,4.7,8.5,40,0.00,,,0.12,WUHU216HW,2013-02-10 00:27:00,
2013-02-09 17:32:00,47.5,24.4,29.96,West,270,5.1,8.5,40,0.00,,,0.12,WUHU216HW,2013-02-10 00:32:00,
2013-02-09 17:37:00,47.9,25.2,29.96,West,270,4.7,7.2,41,0.00,,,0.12,WUHU216HW,2013-02-10 00:37:00,
2013-02-09 17:42:00,47.9,25.2,29.96,West,270,4.7,6.5,41,0.00,,,0.12,WUHU216HW,2013-02-10 00:42:00,
2013-02-09 17:47:00,47.9,25.2,29.97,West,270,5.1,7.6,41,0.00,,,0.12,WUHU216HW,2013-02-10 00:47:00,
2013-02-09 17:52:00,47.9,25.2,29.97,WNW,293,6.0,7.6,41,0.00,,,0.12,WUHU216HW,2013-02-10 00:52:00,
2013-02-09 17:57:00,47.7,25.1,29.97,WNW,293,4.5,7.6,41,0.00,,,0.12,WUHU216HW,2013-02-10 00:57:00,
2013-02-09 18:02:00,47.3,24.8,29.97,WNW,293,6.3,8.9,41,0.00,,,0.12,WUHU216HW,2013-02-10 01:02:00,
2013-02-09 18:07:00,47.2,24.6,29.97,North,0,3.4,8.9,41,0.00,,,0.12,WUHU216HW,2013-02-10 01:07:00,
2013-02-09 18:12:00,47.0,24.4,29.96,NW,315,3.8,7.8,41,0.00,,,0.12,WUHU216HW,2013-02-10 01:12:00,
2013-02-09 18:17:00,46.8,24.9,29.96,NW,315,5.4,7.8,42,0.00,,,0.12,WUHU216HW,2013-02-10 01:17:00,
2013-02-09 18:22:00,46.4,24.5,29.96,NW,315,4.3,7.6,42,0.00,,,0.12,WUHU216HW,2013-02-10 01:22:00,
2013-02-09 18:27:00,46.3,24.8,29.96,NW,315,4.7,6.5,43,0.00,,,0.12,WUHU216HW,2013-02-10 01:27:00,
2013-02-09 18:32:00,46.1,24.7,29.96,NW,315,4.0,6.3,43,0.00,,,0.12,WUHU216HW,2013-02-10 01:32:00,
2013-02-09 18:37:00,45.7,24.4,29.96,NW,315,3.8,4.7,43,0.00,,,0.12,WUHU216HW,2013-02-10 01:37:00,
2013-02-09 18:42:00,45.5,24.8,29.96,NNW,338,4.3,4.7,44,0.00,,,0.12,WUHU216HW,2013-02-10 01:42:00,
2013-02-09 18:47:00,45.4,24.6,29.96,NNW,338,4.7,5.1,44,0.00,,,0.12,WUHU216HW,2013-02-10 01:47:00,
2013-02-09 18:52:00,45.4,24.6,29.96,WNW,293,3.4,5.4,44,0.00,,,0.12,WUHU216HW,2013-02-10 01:52:00,
2013-02-09 18:57:00,45.4,24.6,29.96,West,270,2.9,5.4,44,0.00,,,0.12,WUHU216HW,2013-02-10 01:57:00,
2013-02-09 19:02:00,45.2,24.4,29.96,NNW,338,4.7,5.4,44,0.00,,,0.12,WUHU216HW,2013-02-10 02:02:00,
2013-02-09 19:07:00,45.4,24.6,29.97,NNW,338,4.0,5.4,44,0.00,,,0.12,WUHU216HW,2013-02-10 02:07:00,
2013-02-09 19:12:00,45.4,24.6,29.97,NNW,338,3.4,5.4,44,0.00,,,0.12,WUHU216HW,2013-02-10 02:12:00,
2013-02-09 19:17:00,45.4,24.6,29.96,NW,315,3.6,5.4,44,0.00,,,0.12,WUHU216HW,2013-02-10 02:17:00,
2013-02-09 19:22:00,45.5,24.2,29.96,WNW,293,4.0,6.5,43,0.00,,,0.12,WUHU216HW,2013-02-10 02:22:00,
2013-02-09 19:27:00,45.5,24.2,29.96,NW,315,4.0,6.5,43,0.00,,,0.12,WUHU216HW,2013-02-10 02:27:00,
2013-02-09 19:32:00,45.4,24.0,29.96,WNW,293,5.4,6.5,43,0.00,,,0.12,WUHU216HW,2013-02-10 02:32:00,
2013-02-09 19:37:00,45.4,24.0,29.96,West,270,4.0,5.8,43,0.00,,,0.12,WUHU216HW,2013-02-10 02:37:00,
2013-02-09 19:42:00,45.0,24.3,29.96,NNW,338,2.5,5.8,44,0.00,,,0.12,WUHU216HW,2013-02-10 02:42:00,
2013-02-09 19:47:00,45.0,24.3,29.96,West,270,2.9,4.7,44,0.00,,,0.12,WUHU216HW,2013-02-10 02:47:00,
2013-02-09 19:52:00,44.8,24.1,29.97,NNW,338,3.4,4.9,44,0.00,,,0.12,WUHU216HW,2013-02-10 02:52:00,
2013-02-09 19:57:00,44.8,24.1,29.97,NW,315,4.5,5.1,44,0.00,,,0.12,WUHU216HW,2013-02-10 02:57:00,
2013-02-09 20:02:00,44.6,23.9,29.96,NW,315,4.0,5.1,44,0.00,,,0.12,WUHU216HW,2013-02-10 03:02:00,
2013-02-09 20:07:00,44.5,23.8,29.97,NNW,338,2.9,4.9,44,0.00,,,0.12,WUHU216HW,2013-02-10 03:07:00,
2013-02-09 20:12:00,44.3,23.6,29.96,WNW,293,2.2,4.7,44,0.00,,,0.12,WUHU216HW,2013-02-10 03:12:00,
2013-02-09 20:17:00,44.3,23.6,29.97,NW,315,4.0,4.0,44,0.00,,,0.12,WUHU216HW,2013-02-10 03:17:00,
2013-02-09 20:22:00,44.1,23.5,29.97,NW,315,2.9,4.0,44,0.00,,,0.12,WUHU216HW,2013-02-10 03:22:00,
2013-02-09 20:27:00,44.1,23.5,29.97,NNW,338,2.5,4.0,44,0.00,,,0.12,WUHU216HW,2013-02-10 03:27:00,
2013-02-09 20:32:00,44.1,23.5,29.97,NW,315,3.6,3.8,44,0.00,,,0.12,WUHU216HW,2013-02-10 03:32:00,
2013-02-09 20:37:00,44.1,23.5,29.97,WNW,293,2.7,3.8,44,0.00,,,0.12,WUHU216HW,2013-02-10 03:37:00,
2013-02-09 20:42:00,44.1,23.5,29.97,NNW,338,3.4,3.8,44,0.00,,,0.12,WUHU216HW,2013-02-10 03:42:00,
2013-02-09 20:47:00,43.9,23.3,29.97,NW,315,3.4,3.8,44,0.00,,,0.12,WUHU216HW,2013-02-10 03:47:00,
2013-02-09 20:52:00,43.7,23.1,29.97,NW,315,3.4,4.7,44,0.00,,,0.12,WUHU216HW,2013-02-10 03:52:00,
2013-02-09 20:57:00,43.7,23.1,29.97,NW,315,1.8,4.7,44,0.00,,,0.12,WUHU216HW,2013-02-10 03:57:00,
2013-02-09 21:03:00,43.7,23.1,29.97,NW,315,2.5,3.4,44,0.00,,,0.12,WUHU216HW,2013-02-10 04:03:00,
2013-02-09 21:08:00,43.6,23.0,29.97,NW,315,1.1,2.9,44,0.00,,,0.12,WUHU216HW,2013-02-10 04:08:00,
2013-02-09 21:12:00,43.6,23.5,29.98,NW,315,1.8,4.0,45,0.00,,,0.12,WUHU216HW,2013-02-10 04:12:00,
2013-02-09 21:17:00,43.4,23.3,29.97,NW,315,2.7,4.0,45,0.00,,,0.12,WUHU216HW,2013-02-10 04:17:00,
2013-02-09 21:22:00,43.2,23.2,29.98,NW,315,2.2,3.8,45,0.00,,,0.12,WUHU216HW,2013-02-10 04:22:00,
2013-02-09 21:27:00,43.2,23.2,29.98,NW,315,1.8,3.6,45,0.00,,,0.12,WUHU216HW,2013-02-10 04:27:00,
2013-02-09 21:32:00,43.0,23.6,29.98,NW,315,1.6,3.6,46,0.00,,,0.12,WUHU216HW,2013-02-10 04:32:00,
2013-02-09 21:37:00,43.0,23.6,29.99,NW,315,1.1,2.9,46,0.00,,,0.12,WUHU216HW,2013-02-10 04:37:00,
2013-02-09 21:42:00,43.0,23.6,29.99,NNW,338,1.3,2.5,46,0.00,,,0.12,WUHU216HW,2013-02-10 04:42:00,
2013-02-09 21:47:00,43.0,23.6,29.99,NW,315,2.0,2.9,46,0.00,,,0.12,WUHU216HW,2013-02-10 04:47:00,
2013-02-09 21:52:00,42.8,23.4,30.00,NNW,338,2.7,4.0,46,0.00,,,0.12,WUHU216HW,2013-02-10 04:52:00,
2013-02-09 21:57:00,42.8,23.4,30.00,NW,315,3.1,4.0,46,0.00,,,0.12,WUHU216HW,2013-02-10 04:57:00,
2013-02-09 22:00:00,43.0,23.6,30.00,NW,315,2.5,4.0,46,0.00,,,0.12,WUHU216HW,2013-02-10 05:00:00,
2013-02-09 22:05:00,42.8,23.9,30.00,NNW,338,2.2,3.4,47,0.00,,,0.12,WUHU216HW,2013-02-10 05:05:00,
2013-02-09 22:10:00,42.7,23.8,30.00,North,0,1.8,3.4,47,0.00,,,0.12,WUHU216HW,2013-02-10 05:10:00,
2013-02-09 22:15:00,42.7,23.8,30.00,NW,315,2.0,3.4,47,0.00,,,0.12,WUHU216HW,2013-02-10 05:15:00,
2013-02-09 22:20:00,42.7,24.3,30.00,North,0,0.9,2.9,48,0.00,,,0.12,WUHU216HW,2013-02-10 05:20:00,
2013-02-09 22:25:00,42.7,24.3,30.00,NW,315,1.6,2.9,48,0.00,,,0.12,WUHU216HW,2013-02-10 05:25:00,
2013-02-09 22:30:00,42.5,24.1,30.00,NW,315,0.9,2.2,48,0.00,,,0.12,WUHU216HW,2013-02-10 05:30:00,
2013-02-09 22:35:00,42.5,24.1,30.00,West,270,1.1,2.2,48,0.00,,,0.12,WUHU216HW,2013-02-10 05:35:00,
2013-02-09 22:40:00,42.5,24.1,30.00,West,270,1.1,2.5,48,0.00,,,0.12,WUHU216HW,2013-02-10 05:40:00,
2013-02-09 22:45:00,42.1,24.3,30.00,SW,225,2.0,2.5,49,0.00,,,0.12,WUHU216HW,2013-02-10 05:45:00,
2013-02-09 22:50:00,41.9,24.1,29.99,WSW,248,1.6,2.5,49,0.00,,,0.12,WUHU216HW,2013-02-10 05:50:00,
2013-02-09 22:55:00,41.8,23.9,29.99,East,90,0.0,2.5,49,0.00,,,0.12,WUHU216HW,2013-02-10 05:55:00,
2013-02-09 23:00:00,41.6,23.8,29.99,WNW,293,1.1,1.6,49,0.00,,,0.12,WUHU216HW,2013-02-10 06:00:00,
2013-02-09 23:05:00,41.4,23.6,29.99,WNW,293,0.4,1.1,49,0.00,,,0.12,WUHU216HW,2013-02-10 06:05:00,
2013-02-09 23:10:00,41.4,24.1,30.00,WSW,248,0.9,1.8,50,0.00,,,0.12,WUHU216HW,2013-02-10 06:10:00,
2013-02-09 23:15:00,41.4,24.1,29.99,West,270,0.0,1.8,50,0.00,,,0.12,WUHU216HW,2013-02-10 06:15:00,
2013-02-09 23:20:00,41.4,24.1,29.99,NNW,338,0.2,2.0,50,0.00,,,0.12,WUHU216HW,2013-02-10 06:20:00,
2013-02-09 23:25:00,41.6,23.8,29.99,NNW,338,0.7,2.0,49,0.00,,,0.12,WUHU216HW,2013-02-10 06:25:00,
2013-02-09 23:30:00,41.6,23.8,29.99,North,0,1.3,2.7,49,0.00,,,0.12,WUHU216HW,2013-02-10 06:30:00,
2013-02-09 23:35:00,41.9,24.1,29.99,NNW,338,0.7,2.9,49,0.00,,,0.12,WUHU216HW,2013-02-10 06:35:00,
2013-02-09 23:40:00,41.9,24.1,29.99,WNW,293,2.2,2.9,49,0.00,,,0.12,WUHU216HW,2013-02-10 06:40:00,
2013-02-09 23:45:00,42.1,23.8,29.99,NNW,338,1.3,3.1,48,0.00,,,0.12,WUHU216HW,2013-02-10 06:45:00,
2013-02-09 23:50:00,42.1,23.8,29.99,NNW,338,1.1,3.1,48,0.00,,,0.12,WUHU216HW,2013-02-10 06:50:00,
2013-02-09 23:55:00,42.1,23.8,29.99,North,0,1.8,2.5,48,0.00,,,0.12,WUHU216HW,2013-02-10 06:55:00,